Terminal Aerodrome Forecast
Issued by NWS

Home | Current Version | Previous Version | Text Only | Print | Product List | Glossary On
Versions: 1 2 3 4 5 6 7 8 9 10 11 12 13 14 15 16 17 18 19 20
000
FTUS42 KTBW 061400 AAB
TAFRSW
TAF AMD
KRSW 061438Z 0615/0712 VRB03KT 3SM BR BKN003
     FM061500 33005KT P6SM SCT008
      TEMPO 0615/0616 BKN008
     FM061900 33010KT P6SM VCSH SCT010 BKN035
     FM062300 36012KT P6SM SCT035
     FM070500 03012KT P6SM BKN025=

USA.gov is the U.S. government's official web portal to all federal, state and local government web resources and services.